Watkins Glen, New York
Current Conditions -  °F | °C
As of 1:53 PM on Saturday 20 Dec 2014 (Local Time) from KELM Reporting Station
Overcast Overcast  
Wind Chill: -4°   Ceiling: 2300
Heat Index: -1°   Visibility: 10mi
Dew Point: -6°   Wind: 6mph
Humidity: 69%   Direction: 20°NNE
Pressure: 30.21"   Gusts: NA
Location:  42.38°N, 76.87°W
Report Text: KELM 201853Z 02005KT 10SM OVC023 M01/M06 A3021 RMK AO2 SLP242 T10111061
Loading
Personal Weather Stations






























Interactive Weather Map New forecast layout! Learn more

10-Day Weather Forecast

Advertisements
Track Severe Weather on mobile